Granada, MN (56039)

6:47 AM CDT on July 28, 2015 (GMT -0500)
Fairmont Municipal | | Change Station
CLOSE
Current Station
Airport
Location: Fairmont,
Elevation: 1161 ft
Nearby Weather Stations

Elev 1161 ft 43.65 °N, 94.42 °W | Updated 12 minutes ago

Rain
Rain
70 °F
Feels Like 70 °F
N
7
Wind Variable Wind from West

Today
High -- | Low -- °F
--% Chance of Precip.
Yesterday
High -- | Low -- °F
Precip. -- in
6:01 AM 8:45 PM
Waxing Gibbous, 89% visible
Pressure 29.91 in
Visibility 10.0 miles
Clouds Few 800 ft
Scattered Clouds 1300 ft
Mostly Cloudy 2500 ft
Dew Point 63 °F
Humidity 78%
Rainfall 0.12 in
Snow Depth Not available.
UV 0 out of 12
Pollen 1.00 out of 12
Air Quality Not available.
Flu Activity Not available.
METAR KFRM 281135Z AUTO 28006KT 10SM FEW008 SCT013 BKN025 21/17 A2991 RMK AO1 LTG DSNT NE TSB15E30 P0008

More Conditions Fewer Conditions

Pressure 29.91 in
Visibility 10.0 miles
Clouds Few 800 ft
Scattered Clouds 1300 ft
Mostly Cloudy 2500 ft
Dew Point 63 °F
Humidity 78%
Rainfall 0.12 in
Snow Depth Not available.
UV 0 out of 12
Pollen 1.00 out of 12
Air Quality Not available.
Flu Activity Not available.
METAR KFRM 281135Z AUTO 28006KT 10SM FEW008 SCT013 BKN025 21/17 A2991 RMK AO1 LTG DSNT NE TSB15E30 P0008

More Conditions Fewer Conditions

10-Day Weather Forecast

×

Almanac

Astronomy

Jul. 28, 2015 Rise Set
Actual Time
Civil Twilight
Nautical Twilight
Astronomical Twilight
Moon
Length of Visible Light
Length of Day
Tomorrow will be .
, % of the Moon is Illuminated

Today's Extremes

State Highs State Lows

Community

WunderPhotos

Upload Photos

1,841,808 photos uploaded!

WunderBlogs® & News

Nearby

Air Quality

  Air Quality AQ Index Pollutant
Not available.

Snow Depth

Station Depth Elevation

Earthquake Activity

City Distance Mag. Time & Date
Minimum magnitude displayed is 2.5.

Coastal Water Temperatures

Place Temperature

Stations

Nearby Weather Stations

Station Location Temp. Windchill Dew Point Humidity Wind Precip. Elev Updated Type